Hlavní strana
METAR-TAF:

METAR-TAF

Letiště :

Mar del Plata, Argentina

zeměpisná šířka: 37-56S, zeměpisná délka: 057-35W, výška: 18 m

Aktuální stav počasí

Zpráva byla vytvořena před 25 minutami, v 09:00 UTC
Západní vítr 3 kt
Teplota 4°C
Vlhkost vzduchu 100%
Tlak 1018 hPa
Viditelnost: 1200 m
kouřmo

METAR: SAZM 200900Z 26003KT 1200 BR NSC 04/04 Q1018

Čas: 06:25 (09:25 UTC)

Předpověď počasí

Zpráva byla vytvořena před 4 hodinami a 25 minutami, v 05:00 UTC
Předpověď platná od 20 v 06 UTC do 21 v 06 UTC
Jihozápadní vítr 5 kt
Viditelnost: 6000 m
Změna
od 20 v 08 UTC do 20 v 11 UTC
Viditelnost: 2000 m
kouřmo
Změna
od 20 v 12 UTC do 20 v 14 UTC
Viditelnost 10 km a více
Žádná oblačnost pod 1500 m, nevyskytují se cumulonimby.
Změna
od 20 v 19 UTC do 20 v 21 UTC
Severoseverozápadní vítr 10 kt

TAF: SAZM 200500Z 2006/2106 23005KT 6000 NSC TX16/2019Z TN03/2012Z BECMG 2008/2011 2000 BR BECMG 2012/2014 CAVOK BECMG 2019/2021 34010KT

Stav a předpovědi počasí z více než 4 000 letišť (zprávy METAR a TAF).

Červené a žluté tečky na mapě představují dostupné meteorologické stanice.

Když kurzor umístíte na tečku, zobrazí se název stanice.

Pak kliknutím zobrazíte stav a předpověď počasí.

Chcete-li změnit mapu, kliknutím na zelené tlačítko se znaménkem +mapu přiblížíte, kliknutím na zelené tlačítko se znaménkem – mapu oddálíte a kliknutím na zelené šipky přejdete na sousední mapy.


METAR-TAF: